Terminal Aerodrome Forecast
Issued by NWS

Home | Current Version | Previous Version | Text Only | Print | Product List | Glossary On
Versions: 1 2 3 4 5 6 7 8 9 10 11 12 13 14 15
156
FTUS42 KMLB 110531
TAFSUA
TAF
KSUA 110531Z 1106/1206 30007KT P6SM FEW250
     FM111800 03008KT P6SM SKC
     FM120000 00000KT P6SM SKC
      AMD LTD TO WX VIS AND WIND TIL 111200=

USA.gov is the U.S. government's official web portal to all federal, state and local government web resources and services.